Minot, ND

10:21 PM CST on March 01, 2015 (GMT -0600)
Garrison | Change Station
CLOSE
Current Station
Airport
Location: Garrison,
Elevation: 1909 ft
Nearby Weather Stations

Elev 1909 ft 47.65 °N, 101.44 °W | Updated 29 minutes ago

Clear
Clear
8 °F
Feels Like 8 °F
N
0
Wind Variable Wind from North
Gusts 15 mph

Today
High -- | Low -- °F
--% Chance of Precip.
Yesterday
High -- | Low -- °F
Precip. -- in
7:26 AM 6:29 PM
Waxing Gibbous, 89% visible
Pressure 30.44 in
Visibility -9999.0 miles
Clouds
Dew Point 4 °F
Humidity 83%
Rainfall 0.00 in
Snow Depth Not available.
UV Not available.
Pollen .10 out of 12
Air Quality Not available.
Flu Activity Not available.
METAR KN60 020352Z AUTO 00000KT M13/M16 A3031 RMK AO1 SLP307 T11331156

More Conditions Fewer Conditions

Pressure 30.44 in
Visibility -9999.0 miles
Clouds
Dew Point 4 °F
Humidity 83%
Rainfall 0.00 in
Snow Depth Not available.
UV Not available.
Pollen .10 out of 12
Air Quality Not available.
Flu Activity Not available.
METAR KN60 020352Z AUTO 00000KT M13/M16 A3031 RMK AO1 SLP307 T11331156

More Conditions Fewer Conditions

10-Day Weather Forecast

Almanac

Astronomy

Mar. 01, 2015 Rise Set
Actual Time
Civil Twilight
Nautical Twilight
Astronomical Twilight
Moon
Length of Visible Light
Length of Day
Tomorrow will be .
, % of the Moon is Illuminated

Today's Extremes

State Highs State Lows

Community

WunderPhotos

Upload Photos

1,801,724 photos uploaded!

WunderBlogs® & News

Nearby

Air Quality

  Air Quality AQ Index Pollutant
Not available.

Snow Depth

Station Depth Elevation

Earthquake Activity

City Distance Mag. Time & Date
Minimum magnitude displayed is 2.5.

Coastal Water Temperatures

Place Temperature

Nearby Weather Stations